To NAV CANADA Home Page Login to a new session Search on AWWS site Feedback and Comments Disclaimer Vers la page française équivalente Tips FAQ What's new on the site To the Forecasts and Observations / NOTAM section To "File a Flight Plan" website Publications and other links Update of the User's profile FIC Telephone Numbers My Weather Data Folder Route Weather Data Regional Weather Data Local Weather Data To the Forecasts and Observations / NOTAM section
Request Generated 10/17/2017 at 01:39:50 UTC . Weather information available at that time is displayed.


Go to a specific product

Save this request

NOTAM

NOTAM


SIGMET
To the Product Selector

SIGMETS GFACN32

WSCN32 CWEG 162348
SIGMET A3 VALID 162345/170345 CWEG-
CZEG EDMONTON FIR SEV TURB OBS WTN 15 NM OF LINE /N4904 W11348/45 SW CYQL -
/N5029 W11419/45 S CYYC - /N5402 W11950/45 N CAV4 SFC/FL120 QS NC
RMK GFACN32 GFACN31
END/WSCN22/CWAO

WSCN32 CWEG 170136
SIGMET F1 VALID 170135/170155 CWEG-
CZWG WINNIPEG FIR CNCL SIGMET F1 162155/170155
RMK GFACN32
END/WSCN23/CWAO



AIRMET
To the Product Selector

AIRMETS GFACN32

GFACN32 - No AIRMET bulletins in effect



PIREP
To the Product Selector

FIR_WINNIPEG (WG)


UACN01 CYTH 162247
WG
UUA /OV CYTH 060002 /TM 2232 /FLDURD /TP BE20 /RM WS RWY 24/
AIRCRAFT REPORTED +/- 20 KNOTS AT 500 AGL

UACN10 CYWG 162212
WG
UA /OV CYXL 045035 /TM 2200 /FLDURD /TP B190 /IC MDT MXD 105-120


METAR/TAF
To the Product Selector

REGINA INTL/SK    

METAR CYQR 170100Z 19007KT 15SM FEW250 09/M02 A2983 RMK CI2 SLP125=
METAR CYQR 170000Z 21004KT 15SM SCT250 13/M01 A2986 RMK CI4 SLP129
DENSITY ALT 2200FT=
METAR CYQR 162300Z 25009KT 15SM BKN250 17/M01 A2985 RMK CI5 SLP125
DENSITY ALT 2700FT=

TAF CYQR 162338Z 1700/1724 25009KT P6SM BKN250
FM170900 24012KT P6SM BKN250
FM171500 25015G25KT P6SM FEW150 SCT250
BECMG 1718/1720 24020G30KT
RMK NXT FCST BY 170600Z=

MOOSE JAW/AIR VICE MARSHAL C.M. MCEWEN/SK    

SPECI CYMJ 170039Z 19009KT 15SM FEW300 12/00 A2984 RMK CI2 LAST OBS / NXT 171000 UTC SLP116=
METAR CYMJ 170000Z 20006KT 15SM FEW300 15/00 A2985 RMK CI2 SLP121=
METAR CYMJ 162300Z 25009KT 15SM FEW300 18/00 A2987 RMK CI2 SLP123=
METAR CYMJ 162200Z 27008KT 15SM SCT300 19/00 A2988 RMK CI3 SLP127=

TAF AMD CYMJ 170042Z 1700/1712 FCST CNCLD DUE END OF FLYING PROGRAM
RMK NXT FCST WILL BE ISSUED AT 171115Z=


RADAR PCPN RATE
To the Product Selector
Pacific Canada      Western Canada     

SATELLITE VISIBLE
To the Product Selector
West Canada      

SATELLITE INFRARED
To the Product Selector
West Canada     

GRAPHICAL FA CLOUDS & WEATHER FORECASTS
To the Product Selector
Graphical FA gfacn32      

GRAPHICAL FA ICING, TURBULENCE & FREEZING LEVEL FORECASTS
To the Product Selector
Graphical FA gfacn32      

FDTEXT Low Level FD. Temperatures are not forecast for the 3,000-foot level.
To the Product Selector
STN YQR - REGINA. SASK for use 3000 6000 9000 12000 18000
FDCN01 CWAO FCST BASED ON 161200 DATA VALID 161800 17-21 3123+06 3133+00 3043-05 2962-14
FDCN02 CWAO FCST BASED ON 161200 DATA VALID 170000 21-06 2528+08 2831+01 2944-04 2955-13
FDCN03 CWAO FCST BASED ON 161200 DATA VALID 171200 06-17 2818+08 2742+05 2846+01 2842-12



Your time UTC time
Weather data provided by Environment Canada and NAV CANADA